Latest Weather Observations for Canberra

IDN60901

Issued at 11:41 am EST Sunday 22 September 2019 (issued every 10 minutes, with the page automatically refreshed every 10 minutes)

About weather observations | Map of Canberra area stations | Latest observations for Canberra area | Other Formats
Station Details ID: 070351 Name: CANBERRA AIRPORT Lat: -35.31 Lon: 149.20 Height: 577.05 m
Data from the previous 72 hours. | See also: Recent months at Canberra
Date/Time
EST
Temp
°C
App
Temp
°C
Dew
Point
°C
Rel
Hum
%
Delta-T
°C
Wind Press
QNH
hPa
Press
MSL
hPa
Rain since
9am
mm
Dir  Spd
km/h
Gust
km/h
Spd
kts
Gust
kts
22/11:30am 16.1 10.9 2.2 39 6.4 WNW 19 30 10 16 1022.3 1022.5 0.0
22/11:00am 14.6 9.0 1.5 41 5.9 NW 20 33 11 18 1022.7 1022.9 0.0
22/10:30am 14.3 7.7 2.2 44 5.5 WNW 26 33 14 18 1022.7 1022.9 0.0
22/10:00am 14.0 8.2 2.3 45 5.3 WNW 22 28 12 15 1022.7 1022.9 0.0
22/09:30am 13.9 8.3 3.7 50 4.8 W 22 32 12 17 1023.0 1023.2 0.0
22/09:00am 13.2 7.8 2.7 49 4.8 W 20 28 11 15 1023.1 1023.3 3.8
22/08:30am 12.7 8.3 2.8 51 4.5 WNW 15 20 8 11 1023.0 1023.2 3.8
22/08:00am 11.4 7.6 3.7 59 3.5 NNW 13 15 7 8 1022.8 1023.0 3.8
22/07:30am 10.5 7.6 4.4 66 2.8 WNW 9 11 5 6 1022.6 1022.8 3.8
22/07:00am 9.1 5.1 4.7 74 2.0 NW 15 17 8 9 1022.3 1022.5 3.8
22/06:30am 7.3 3.8 3.4 76 1.7 WNW 11 15 6 8 1022.0 1022.2 3.8
22/06:00am 7.7 4.3 3.9 77 1.7 NNW 11 13 6 7 1021.5 1021.7 3.8
22/05:30am 8.2 5.3 4.6 78 1.6 NNW 9 11 5 6 1020.9 1021.1 3.8
22/05:00am 8.3 4.2 4.5 77 1.7 NNW 15 17 8 9 1020.8 1021.0 3.8
22/04:30am 8.1 5.0 5.4 83 1.3 NNW 11 15 6 8 1020.0 1020.1 3.8
22/04:00am 9.1 5.3 6.0 81 1.5 NW 15 19 8 10 1019.5 1019.7 3.8
22/03:30am 9.7 5.8 7.0 83 1.3 NNW 17 20 9 11 1019.4 1019.6 3.8
22/03:00am 9.3 5.4 7.3 87 1.0 NNW 17 20 9 11 1018.8 1018.9 3.8
22/02:30am 9.3 5.9 7.6 89 0.8 NNW 15 19 8 10 1019.0 1019.2 3.8
22/02:00am 10.5 7.1 7.7 83 1.4 NNW 15 17 8 9 1019.1 1019.3 3.8
22/01:30am 11.4 7.2 8.1 80 1.7 N 20 30 11 16 1019.4 1019.6 3.8
22/01:00am 11.3 7.7 8.3 82 1.5 N 17 22 9 12 1019.1 1019.3 3.8
22/12:30am 10.8 8.9 8.9 88 1.0 NNW 9 13 5 7 1018.9 1019.1 3.8
22/12:00am 10.8 8.2 9.4 91 0.7 NNW 13 13 7 7 1019.0 1019.2 3.8
 
Date/Time
EST
Temp
°C
App
Temp
°C
Dew
Point
°C
Rel
Hum
%
Delta-T
°C
Wind Press
QNH
hPa
Press
MSL
hPa
Rain since
9am
mm
Dir  Spd
km/h
Gust
km/h
Spd
kts
Gust
kts
21/11:30pm 11.5 9.3 9.4 87 1.1 NNW 11 15 6 8 1018.7 1018.8 3.8
21/11:00pm 12.2 9.6 9.4 83 1.5 NW 13 17 7 9 1018.6 1018.7 3.8
21/10:30pm 12.2 9.7 9.8 85 1.3 NW 13 15 7 8 1018.7 1018.8 3.8
21/10:00pm 12.8 10.2 10.7 87 1.1 N 15 17 8 9 1018.5 1018.6 3.8
21/09:30pm 13.1 10.5 9.5 79 1.9 NW 13 17 7 9 1018.5 1018.6 3.8
21/09:00pm 13.8 11.2 10.6 81 1.7 WNW 15 20 8 11 1018.4 1018.5 3.8
21/08:30pm 14.4 12.1 13.0 91 0.8 NNW 17 22 9 12 1018.3 1018.4 3.8
21/08:13pm 14.3 11.6 12.9 91 0.8 NNW 19 24 10 13 1018.0 1018.1 3.8
21/08:00pm 14.5 10.9 12.9 90 0.9 NNW 24 33 13 18 1017.7 1017.9 3.8
21/07:39pm 15.1 11.3 12.4 84 1.5 NNW 24 32 13 17 1017.8 1018.0 2.0
21/07:30pm 15.4 12.3 12.3 82 1.7 NW 20 26 11 14 1017.8 1018.0 1.8
21/07:00pm 15.1 10.1 12.2 83 1.6 NNW 30 41 16 22 1017.4 1017.6 1.8
21/06:56pm 15.2 9.7 12.3 83 1.6 NNW 33 41 18 22 1017.4 1017.6 1.8
21/06:37pm 16.0 10.4 11.6 75 2.4 NW 32 52 17 28 1017.2 1017.3 1.8
21/06:30pm 17.6 11.6 10.7 64 3.8 NNW 33 52 18 28 1017.1 1017.2 1.6
21/06:00pm 17.2 12.2 11.0 67 3.4 NNW 28 48 15 26 1016.7 1016.8 1.6
21/05:30pm 17.3 11.5 10.9 66 3.5 N 32 52 17 28 1016.0 1016.2 1.6
21/05:22pm 17.4 11.7 11.0 66 3.5 N 32 52 17 28 1015.7 1015.8 1.6
21/05:00pm 17.4 12.8 11.0 66 3.5 NNW 26 44 14 24 1015.8 1015.9 1.6
21/04:30pm 17.7 13.9 11.0 65 3.7 NNW 22 30 12 16 1015.7 1015.8 1.6
21/04:00pm 16.9 12.9 11.8 72 2.9 N 24 33 13 18 1016.0 1016.2 1.6
21/03:30pm 16.4 12.1 12.2 76 2.4 N 26 37 14 20 1016.8 1016.9 1.6
21/03:00pm 16.2 11.9 12.2 77 2.3 N 26 37 14 20 1016.7 1016.8 1.6
21/02:30pm 15.8 11.6 12.5 81 1.9 N 26 35 14 19 1017.2 1017.3 1.6
21/02:00pm 15.2 9.7 12.3 83 1.6 N 33 41 18 22 1016.9 1017.0 1.6
21/01:47pm 15.0 10.5 12.5 85 1.4 N 28 33 15 18 1017.5 1017.7 1.6
21/01:37pm 15.1 9.9 12.8 86 1.3 NNW 32 46 17 25 1018.4 1018.5 1.2
21/01:34pm 15.2 9.7 12.5 84 1.5 NW 33 52 18 28 1018.2 1018.3 1.0
21/01:30pm 15.5 9.6 12.4 82 1.7 NNW 35 52 19 28 1018.6 1018.7 0.8
21/01:26pm 15.9 10.6 12.5 80 1.9 NW 32 52 17 28 1018.7 1018.8 0.6
21/01:00pm 16.2 13.9 12.9 81 1.9 NW 17 24 9 13 1018.5 1018.6 0.6
21/12:30pm 15.6 14.7 13.6 88 1.2 W 11 15 6 8 1018.1 1018.2 0.6
21/12:00pm 16.0 15.3 13.1 83 1.7 WSW 9 13 5 7 1018.0 1018.1 0.6
21/11:43am 16.1 14.6 13.2 83 1.7 W 13 17 7 9 1018.1 1018.2 0.4
21/11:30am 16.9 16.2 13.2 79 2.1 W 9 13 5 7 1018.2 1018.3 0.2
21/11:20am 17.4 17.7 12.1 71 3.0 SE 2 11 1 6 1018.3 1018.4 0.0
21/11:00am 16.9 15.1 12.0 73 2.8 W 13 19 7 10 1018.7 1018.8 0.0
21/10:30am 17.8 16.5 11.1 65 3.7 WSW 9 13 5 7 1018.6 1018.7 0.0
21/10:00am 17.6 15.1 11.2 66 3.6 WSW 15 20 8 11 1019.6 1019.8 0.0
21/09:30am 18.4 16.8 11.7 65 3.8 W 11 17 6 9 1020.1 1020.2 0.0
21/09:00am 16.9 17.3 11.2 69 3.2 CALM 0 0 0 0 1020.0 1020.1 0.0
21/08:30am 15.9 15.7 11.7 76 2.3 ENE 4 9 2 5 1020.2 1020.3 0.0
21/08:00am 14.7 15.3 12.0 84 1.5 CALM 0 0 0 0 1020.2 1020.3 0.0
21/07:30am 12.7 13.3 11.9 95 0.4 CALM 0 0 0 0 1020.4 1020.6 0.0
21/07:00am 10.4 10.5 10.2 99 0.1 CALM 0 0 0 0 1020.3 1020.4 0.0
21/06:30am 10.4 10.5 10.2 99 0.1 CALM 0 0 0 0 1020.0 1020.1 0.0
21/06:00am 10.4 10.5 10.1 98 0.2 CALM 0 0 0 0 1019.7 1019.9 0.0
21/05:30am 10.6 10.7 10.0 96 0.3 CALM 0 0 0 0 1019.5 1019.7 0.0
21/05:00am 11.8 10.5 11.2 96 0.3 ESE 9 11 5 6 1019.3 1019.5 0.0
21/04:30am 12.2 10.6 11.6 96 0.3 ESE 11 13 6 7 1019.2 1019.4 0.0
21/04:00am 11.8 10.5 11.2 96 0.3 ESE 9 9 5 5 1019.4 1019.6 0.0
21/03:30am 11.6 10.0 10.2 91 0.7 SE 9 11 5 6 1019.6 1019.8 0.0
21/03:00am 12.3 11.2 10.7 90 0.9 SE 7 9 4 5 1019.7 1019.9 0.0
21/02:30am 13.1 11.9 11.5 90 0.9 ESE 9 11 5 6 1020.0 1020.1 0.0
21/02:00am 13.7 14.1 11.4 86 1.3 CALM 0 6 0 3 1020.5 1020.7 0.0
21/01:57am 13.4 13.7 10.9 85 1.4 CALM 0 0 0 0 1020.5 1020.7 0.0
21/01:30am 13.8 12.4 11.0 83 1.5 ENE 9 11 5 6 1020.7 1020.9 0.0
21/01:00am 14.7 14.9 12.0 84 1.5 SSW 2 7 1 4 1021.1 1021.3 0.0
21/12:30am 14.4 13.5 11.4 82 1.6 E 7 7 4 4 1021.3 1021.5 0.0
21/12:00am 15.0 14.4 11.6 80 1.9 NE 6 9 3 5 1021.9 1022.1 0.0
 
Date/Time
EST
Temp
°C
App
Temp
°C
Dew
Point
°C
Rel
Hum
%
Delta-T
°C
Wind Press
QNH
hPa
Press
MSL
hPa
Rain since
9am
mm
Dir  Spd
km/h
Gust
km/h
Spd
kts
Gust
kts
20/11:30pm 14.9 14.0 11.5 80 1.9 NE 7 15 4 8 1022.1 1022.3 0.0
20/11:26pm 15.1 14.5 11.7 80 1.9 SE 6 15 3 8 1022.1 1022.3 0.0
20/11:17pm 15.0 13.4 11.6 80 1.9 NE 11 19 6 10 1022.0 1022.2 0.0
20/11:00pm 15.1 13.9 11.7 80 1.9 NE 9 13 5 7 1022.0 1022.2 0.0
20/10:40pm 15.2 14.0 11.6 79 2.0 WNW 9 11 5 6 1022.1 1022.3 0.0
20/10:30pm 15.0 14.3 11.4 79 2.0 WNW 6 11 3 6 1022.1 1022.3 0.0
20/10:00pm 15.4 11.0 11.6 78 2.1 NE 26 43 14 23 1021.7 1021.8 0.0
20/09:30pm 15.5 12.2 11.7 78 2.1 NE 20 32 11 17 1021.9 1022.1 0.0
20/09:00pm 15.7 12.9 11.5 76 2.3 NE 17 28 9 15 1022.0 1022.2 0.0
20/08:30pm 16.0 11.4 11.2 73 2.7 NE 26 37 14 20 1021.8 1021.9 0.0
20/08:00pm 16.5 11.1 10.8 69 3.1 ENE 30 39 16 21 1021.7 1021.8 0.0
20/07:30pm 17.1 11.3 10.7 66 3.5 ENE 32 41 17 22 1021.2 1021.4 0.0
20/07:00pm 17.6 13.2 10.5 63 3.9 ENE 24 32 13 17 1020.9 1021.1 0.0
20/06:30pm 18.0 14.5 10.9 63 3.9 ENE 20 30 11 16 1020.8 1021.0 0.0
20/06:00pm 18.4 15.4 10.5 60 4.4 ENE 17 26 9 14 1020.8 1021.0 0.0
20/05:30pm 19.5 16.1 10.5 56 5.0 NE 19 28 10 15 1020.8 1021.0 0.0
20/05:00pm 20.2 16.2 10.3 53 5.5 ENE 22 32 12 17 1020.5 1020.7 0.0
20/04:30pm 21.9 18.4 8.8 43 7.1 NNE 17 26 9 14 1020.5 1020.7 0.0
20/04:00pm 22.0 19.1 9.5 45 6.9 N 15 20 8 11 1020.5 1020.7 0.0
20/03:30pm 22.4 18.9 8.9 42 7.4 NNW 17 26 9 14 1020.5 1020.7 0.0
20/03:00pm 22.6 19.5 9.0 42 7.5 N 15 22 8 12 1020.7 1020.9 0.0
20/02:30pm 21.0 17.4 8.3 44 6.8 N 17 26 9 14 1021.1 1021.3 0.0
20/02:00pm 21.0 17.8 8.6 45 6.7 N 15 26 8 14 1021.7 1021.8 0.0
20/01:30pm 21.0 17.1 8.6 45 6.7 NNE 19 26 10 14 1022.2 1022.4 0.0
20/01:00pm 21.0 17.7 9.6 48 6.3 NNE 17 33 9 18 1022.6 1022.8 0.0
20/12:30pm 21.6 18.9 10.4 49 6.3 NNE 15 24 8 13 1022.9 1023.1 0.0
20/12:00pm 20.4 18.4 10.2 52 5.6 NNE 11 22 6 12 1023.4 1023.7 0.0
20/11:30am 20.1 17.9 10.8 55 5.2 NE 13 28 7 15 1024.0 1024.2 0.0
20/11:00am 18.6 16.1 9.7 56 4.8 NNE 13 20 7 11 1024.6 1024.8 0.0
20/10:30am 17.8 14.5 9.4 58 4.5 NE 17 24 9 13 1025.0 1025.3 0.0
20/10:00am 17.5 15.1 9.9 61 4.1 NE 13 20 7 11 1025.6 1025.8 0.0
20/09:57am 17.4 15.1 10.3 63 3.9 NE 13 20 7 11 1025.7 1025.9 0.0
20/09:45am 17.3 15.6 10.0 62 4.0 N 9 13 5 7 1025.8 1026.0 0.0
20/09:30am 16.5 15.9 10.4 67 3.3 NNW 4 9 2 5 1026.0 1026.2 0.0
20/09:14am 15.7 14.4 10.0 69 3.1 NNW 7 9 4 5 1026.2 1026.4 0.0
20/09:00am 14.9 14.2 9.9 72 2.7 NW 4 9 2 5 1026.3 1026.6 0.0
20/08:35am 14.5 13.2 10.1 75 2.4 W 7 9 4 5 1026.5 1026.8 0.0
20/08:30am 14.2 13.0 10.2 77 2.1 SW 7 11 4 6 1026.5 1026.8 0.0
20/08:00am 12.6 11.7 11.3 92 0.7 SW 7 9 4 5 1026.6 1026.9 0.0
20/07:30am 10.4 10.4 9.9 97 0.3 CALM 0 0 0 0 1026.6 1026.9 0.0
20/07:00am 8.0 7.5 7.9 99 0.0 CALM 0 0 0 0 1026.5 1026.8 0.0
20/06:30am 6.0 3.7 5.9 99 0.0 NNW 7 11 4 6 1026.3 1026.6 0.0
20/06:09am 6.4 4.4 6.3 99 0.0 NNE 6 7 3 4 1026.0 1026.2 0.0
20/06:00am 6.9 4.8 6.8 99 0.0 NNE 7 9 4 5 1025.9 1026.1 0.0
20/05:42am 7.2 6.1 7.1 99 0.0 NNE 2 9 1 5 1025.9 1026.1 0.0
20/05:30am 7.3 6.7 7.2 99 0.0 CALM 0 0 0 0 1025.9 1026.1 0.0
20/05:00am 7.5 5.6 7.4 99 0.0 NNW 7 7 4 4 1025.6 1025.8 0.0
20/04:46am 7.5 5.8 7.4 99 0.0 NNW 6 9 3 5 1025.5 1025.7 0.0
20/04:30am 8.8 8.1 8.7 99 0.1 NNE 2 9 1 5 1025.5 1025.7 0.0
20/04:00am 9.0 8.8 8.9 99 0.1 CALM 0 0 0 0 1025.4 1025.6 0.0
20/03:33am 9.0 8.8 8.9 99 0.1 CALM 0 0 0 0 1025.5 1025.7 0.0
20/03:30am 8.8 8.5 8.7 99 0.1 CALM 0 0 0 0 1025.5 1025.7 0.0
20/03:22am 8.8 8.5 8.7 99 0.1 CALM 0 0 0 0 1025.4 1025.6 0.0
20/03:00am 9.5 9.0 9.2 98 0.2 WNW 2 6 1 3 1025.7 1025.9 0.0
20/02:30am 10.3 9.2 10.1 99 0.1 ESE 6 7 3 4 1025.8 1026.0 0.0
20/02:00am 9.2 8.2 8.9 98 0.2 ENE 4 7 2 4 1026.1 1026.3 0.0
20/01:33am 9.4 7.4 8.6 95 0.4 SSW 9 13 5 7 1026.3 1026.6 0.0
20/01:30am 9.6 7.3 9.0 96 0.3 SSW 11 13 6 7 1026.2 1026.4 0.0
20/01:20am 9.5 7.6 8.9 96 0.3 S 9 11 5 6 1026.0 1026.2 0.0
20/01:00am 10.4 9.1 10.1 98 0.2 SE 7 9 4 5 1026.1 1026.3 0.0
20/12:44am 8.7 6.7 7.3 91 0.7 ESE 7 11 4 6 1026.3 1026.6 0.0
20/12:30am 9.7 9.4 8.5 92 0.6 CALM 0 7 0 4 1026.3 1026.6 0.0
20/12:22am 9.6 7.9 7.5 87 1.0 E 6 11 3 6 1026.3 1026.6 0.0
20/12:00am 10.9 10.2 8.7 86 1.1 SSE 2 7 1 4 1026.6 1026.9 0.0
 
Date/Time
EST
Temp
°C
App
Temp
°C
Dew
Point
°C
Rel
Hum
%
Delta-T
°C
Wind Press
QNH
hPa
Press
MSL
hPa
Rain since
9am
mm
Dir  Spd
km/h
Gust
km/h
Spd
kts
Gust
kts
19/11:30pm 11.8 10.6 9.7 87 1.1 SE 6 9 3 5 1026.6 1026.9 0.0
19/11:24pm 10.8 9.9 7.9 82 1.5 SE 2 7 1 4 1026.7 1027.0 0.0
19/11:20pm 11.7 10.7 8.9 83 1.4 SE 4 7 2 4 1026.6 1026.9 0.0
19/11:00pm 12.3 10.5 9.3 82 1.6 SE 9 11 5 6 1026.6 1026.9 0.0
19/10:53pm 12.2 10.3 9.2 82 1.6 S 9 13 5 7 1026.7 1027.0 0.0
19/10:30pm 13.2 11.5 9.8 80 1.8 S 9 15 5 8 1026.8 1027.1 0.0
19/10:00pm 13.5 11.0 9.6 77 2.0 ENE 13 30 7 16 1026.6 1026.9 0.0
19/09:30pm 12.6 10.7 9.2 80 1.8 WSW 9 15 5 8 1026.5 1026.8 0.0
19/09:00pm 12.8 10.7 9.6 81 1.7 S 11 15 6 8 1026.3 1026.6 0.0
19/08:30pm 13.8 12.6 10.2 79 1.9 ESE 7 11 4 6 1026.0 1026.2 0.0
19/08:00pm 14.2 11.9 10.4 78 2.0 ENE 13 26 7 14 1025.7 1025.9 0.0
19/07:30pm 14.4 11.4 10.6 78 2.1 ENE 17 28 9 15 1025.4 1025.6 0.0
19/07:00pm 14.9 11.9 10.5 75 2.4 ENE 17 24 9 13 1025.1 1025.4 0.0
19/06:30pm 15.7 12.7 10.7 72 2.7 ENE 17 22 9 12 1024.7 1024.9 0.0
19/06:00pm 16.6 13.0 9.8 64 3.7 ENE 19 26 10 14 1024.4 1024.6 0.0
19/05:30pm 17.6 14.2 9.2 58 4.5 ENE 17 24 9 13 1024.3 1024.5 0.0
19/05:00pm 18.0 15.4 9.4 57 4.6 ENE 13 20 7 11 1024.2 1024.4 0.0
19/04:30pm 18.0 14.3 9.6 58 4.6 ENE 19 26 10 14 1024.1 1024.3 0.0
19/04:00pm 19.2 15.2 9.1 52 5.4 ENE 20 28 11 15 1023.8 1024.0 0.0
19/03:30pm 19.0 15.8 8.6 51 5.6 NNE 15 22 8 12 1024.0 1024.2 0.0
19/03:00pm 18.5 14.6 8.5 52 5.3 NE 19 26 10 14 1024.3 1024.5 0.0
19/02:30pm 18.9 15.7 8.6 51 5.5 NNE 15 24 8 13 1024.5 1024.7 0.0
19/02:00pm 18.2 14.7 8.7 54 5.0 NE 17 26 9 14 1024.8 1025.1 0.0
19/01:30pm 17.2 14.4 9.9 62 4.0 NE 15 20 8 11 1025.2 1025.5 0.0
19/01:00pm 16.6 13.7 9.8 64 3.7 ENE 15 22 8 12 1025.5 1025.7 0.0
19/12:30pm 16.2 12.6 9.8 66 3.4 NE 19 28 10 15 1025.9 1026.1 0.0
19/12:00pm 15.6 12.0 9.7 68 3.1 ENE 19 28 10 15 1026.3 1026.6 0.0

Latest Capital City Observations: Canberra | Sydney | Melbourne | Brisbane | Adelaide | Perth | Hobart | Darwin

Other formats

Comma delimited format used in spreadsheet applications
http://www.bom.gov.au/fwo/IDN60903/IDN60903.94926.axf

JavaScript Object Notation format (JSON) in row-major order
http://www.bom.gov.au/fwo/IDN60903/IDN60903.94926.json

Data quality

Most of these data are generated automatically and are frequently updated. Quality checks on data are not normally performed. It is possible for incorrect values to appear. Refer to information at About Latest Weather Observations and please check the disclaimer before using these data.